createdAt,value
2023-03-19T00:03:07.739Z,17.03
2023-03-19T00:07:12.744Z,18.30
2023-03-19T00:11:15.827Z,19.83
2023-03-19T00:15:22.156Z,23.43
2023-03-19T00:19:25.987Z,24.43
2023-03-19T00:23:29.365Z,23.10
2023-03-19T00:27:33.509Z,24.90
2023-03-19T00:31:38.093Z,23.83
2023-03-19T00:35:44.182Z,24.00
2023-03-19T00:39:47.626Z,21.03
2023-03-19T00:43:57.333Z,16.20
2023-03-19T00:48:01.860Z,26.40
2023-03-19T00:52:04.969Z,18.77
2023-03-19T00:56:11.486Z,22.90
2023-03-19T01:04:19.133Z,26.40
2023-03-19T01:08:28.587Z,20.73
2023-03-19T01:12:34.236Z,23.60
2023-03-19T01:16:39.979Z,30.00
2023-03-19T01:20:49.608Z,22.93
2023-03-19T01:24:55.811Z,22.40
2023-03-19T01:29:02.403Z,22.03
2023-03-19T01:33:08.474Z,30.77
2023-03-19T01:37:13.035Z,25.33
2023-03-19T01:41:19.977Z,26.43
2023-03-19T01:45:36.559Z,25.57
2023-03-19T01:49:40.576Z,22.57
2023-03-19T01:53:48.879Z,22.53
2023-03-19T01:57:52.315Z,23.13
2023-03-19T02:02:05.653Z,21.17
2023-03-19T02:06:09.366Z,20.90
2023-03-19T02:10:25.670Z,21.63
2023-03-19T02:14:32.157Z,21.73
2023-03-19T02:18:37.427Z,21.60
2023-03-19T02:22:47.608Z,21.80
2023-03-19T02:26:52.326Z,20.97
2023-03-19T02:30:57.267Z,21.00
2023-03-19T02:35:00.754Z,23.53
2023-03-19T02:39:05.670Z,21.73
2023-03-19T02:43:15.160Z,22.03
2023-03-19T02:47:19.274Z,26.63
2023-03-19T02:51:22.288Z,20.17
2023-03-19T02:55:25.751Z,25.17
2023-03-19T02:59:32.266Z,21.10
2023-03-19T03:03:35.597Z,26.47
2023-03-19T03:07:39.753Z,22.37
2023-03-19T03:11:44.442Z,29.33
2023-03-19T03:15:48.854Z,22.83
2023-03-19T03:19:51.896Z,20.00
2023-03-19T03:23:55.262Z,22.17
2023-03-19T03:27:58.235Z,27.07
2023-03-19T03:32:02.966Z,20.30
2023-03-19T03:36:06.482Z,22.60
2023-03-19T03:40:11.339Z,23.20
2023-03-19T03:44:14.624Z,20.73
2023-03-19T03:48:19.196Z,24.27
2023-03-19T03:52:25.423Z,29.47
2023-03-19T03:56:28.468Z,21.73
2023-03-19T04:00:35.202Z,24.53
2023-03-19T04:04:39.850Z,24.37
2023-03-19T04:08:46.109Z,20.57
2023-03-19T04:12:51.089Z,21.60
2023-03-19T04:16:54.228Z,25.00
2023-03-19T04:21:06.049Z,22.23
2023-03-19T04:25:13.209Z,25.40
2023-03-19T04:29:22.214Z,21.87
2023-03-19T04:33:25.732Z,26.30
2023-03-19T04:37:32.307Z,19.67
2023-03-19T04:41:39.855Z,22.13
2023-03-19T04:45:43.516Z,23.50
2023-03-19T04:49:47.139Z,22.40
2023-03-19T04:53:51.500Z,21.97
2023-03-19T04:57:54.520Z,23.77
2023-03-19T05:01:59.775Z,53.10
2023-03-19T05:06:03.365Z,20.93
2023-03-19T05:10:09.033Z,21.37
2023-03-19T05:14:13.857Z,18.70
2023-03-19T05:18:17.042Z,17.77
2023-03-19T05:22:21.091Z,22.60
2023-03-19T05:26:26.075Z,21.77
2023-03-19T05:30:31.685Z,21.47
2023-03-19T05:34:39.272Z,21.93
2023-03-19T05:38:51.352Z,19.83
2023-03-19T05:42:57.897Z,19.77
2023-03-19T05:47:03.913Z,20.90
2023-03-19T05:51:07.511Z,19.90
2023-03-19T05:55:11.170Z,21.40
2023-03-19T05:59:28.878Z,21.33
2023-03-19T06:03:35.107Z,26.37
2023-03-19T06:07:49.034Z,20.20
2023-03-19T06:11:54.793Z,22.00
2023-03-19T06:15:59.348Z,17.60
2023-03-19T06:20:02.551Z,19.33
2023-03-19T06:24:08.139Z,16.87
2023-03-19T06:28:11.788Z,16.17
2023-03-19T06:32:16.662Z,17.37
2023-03-19T06:36:19.695Z,24.30
2023-03-19T06:40:24.361Z,19.50
2023-03-19T06:44:28.494Z,18.63
2023-03-19T06:48:33.238Z,17.00
2023-03-19T06:52:36.280Z,19.50
2023-03-19T06:56:39.587Z,22.97
2023-03-19T07:00:43.024Z,20.80
2023-03-19T07:04:52.478Z,20.47
2023-03-19T07:08:57.347Z,18.83
2023-03-19T07:13:01.650Z,17.77
2023-03-19T07:17:04.808Z,18.00
2023-03-19T07:21:11.808Z,42.90
2023-03-19T07:25:17.685Z,30.87
2023-03-19T07:29:20.889Z,23.40
2023-03-19T07:33:26.042Z,32.57
2023-03-19T07:37:30.557Z,30.93
2023-03-19T07:41:35.610Z,26.23
2023-03-19T07:45:38.930Z,21.67
2023-03-19T07:49:41.969Z,19.20
2023-03-19T07:53:49.004Z,18.87
2023-03-19T07:57:52.105Z,19.23
2023-03-19T08:01:55.232Z,16.50
2023-03-19T08:05:58.298Z,12.83
2023-03-19T08:10:04.900Z,13.70
2023-03-19T08:14:13.751Z,12.98
2023-03-19T08:18:16.876Z,12.77
2023-03-19T08:22:22.629Z,10.65
2023-03-19T08:26:29.609Z,9.60
2023-03-19T08:30:33.264Z,10.13
2023-03-19T08:34:36.698Z,9.55
2023-03-19T08:38:45.276Z,11.32
2023-03-19T08:42:50.060Z,9.35
2023-03-19T08:46:53.072Z,14.15
2023-03-19T08:50:58.073Z,5.85
2023-03-19T08:55:01.349Z,7.72
2023-03-19T08:59:06.238Z,7.40
2023-03-19T09:03:09.254Z,5.97
2023-03-19T09:07:13.578Z,6.07
2023-03-19T09:11:17.365Z,7.03
2023-03-19T09:15:22.930Z,7.15
2023-03-19T09:19:29.139Z,4.75
2023-03-19T09:23:32.335Z,4.85
2023-03-19T09:27:35.614Z,5.22
2023-03-19T09:31:40.518Z,7.72
2023-03-19T09:35:45.684Z,8.73
2023-03-19T09:39:48.905Z,3.58
2023-03-19T09:44:05.746Z,3.85
2023-03-19T09:48:19.627Z,6.35
2023-03-19T09:52:35.558Z,5.97
2023-03-19T09:56:38.867Z,7.00
2023-03-19T10:00:42.809Z,4.75
2023-03-19T10:05:05.574Z,4.10
2023-03-19T10:09:45.503Z,3.45
2023-03-19T10:14:02.081Z,2.45
2023-03-19T10:18:10.026Z,3.35
2023-03-19T10:22:19.596Z,3.10
2023-03-19T10:26:32.354Z,3.28
2023-03-19T10:30:36.653Z,2.67
2023-03-19T10:34:45.410Z,3.35
2023-03-19T10:38:55.183Z,3.30
2023-03-19T10:43:10.706Z,2.50
2023-03-19T10:47:16.183Z,3.72
2023-03-19T10:51:27.671Z,2.72
2023-03-19T10:55:38.312Z,3.70
2023-03-19T10:59:41.320Z,2.33
2023-03-19T11:03:52.812Z,2.63
2023-03-19T11:08:02.230Z,3.47
2023-03-19T11:12:21.488Z,4.95
2023-03-19T11:16:24.898Z,3.05
2023-03-19T11:20:33.789Z,2.30
2023-03-19T11:24:41.438Z,4.90
2023-03-19T11:28:45.927Z,3.85
2023-03-19T11:33:28.855Z,5.40
2023-03-19T11:37:41.537Z,2.50
2023-03-19T11:42:01.892Z,4.78
2023-03-19T11:46:16.705Z,2.50
2023-03-19T11:50:27.322Z,2.30
2023-03-19T11:54:43.356Z,2.33
2023-03-19T11:59:09.187Z,6.78
2023-03-19T12:03:40.458Z,2.60
2023-03-19T12:07:51.235Z,3.47
2023-03-19T12:11:59.442Z,2.83
2023-03-19T12:16:14.675Z,4.00
2023-03-19T12:20:41.896Z,3.55
2023-03-19T12:25:02.815Z,2.53
2023-03-19T12:29:19.690Z,2.25
2023-03-19T12:33:38.397Z,2.33
2023-03-19T12:37:54.888Z,3.50
2023-03-19T12:42:04.142Z,3.22
2023-03-19T12:46:14.551Z,2.20
2023-03-19T12:50:19.992Z,2.42
2023-03-19T12:54:28.530Z,4.00
2023-03-19T12:58:46.860Z,3.42
2023-03-19T13:02:57.758Z,2.03
2023-03-19T13:07:06.812Z,2.15
2023-03-19T13:11:15.496Z,2.33
2023-03-19T13:15:28.986Z,1.98
2023-03-19T13:19:44.495Z,2.17
2023-03-19T13:23:51.104Z,3.28
2023-03-19T13:27:57.786Z,2.00
2023-03-19T13:32:11.371Z,2.90
2023-03-19T13:36:18.010Z,2.97
2023-03-19T13:40:48.440Z,2.20
2023-03-19T13:45:03.754Z,1.90
2023-03-19T13:49:35.475Z,4.07
2023-03-19T13:53:53.516Z,3.17
2023-03-19T13:58:12.190Z,2.00
2023-03-19T14:02:50.894Z,2.03
2023-03-19T14:06:59.728Z,2.28
2023-03-19T14:11:05.814Z,2.10
2023-03-19T14:15:20.350Z,2.85
2023-03-19T14:19:30.928Z,3.35
2023-03-19T14:23:44.154Z,4.43
2023-03-19T14:27:59.298Z,1.98
2023-03-19T14:32:10.370Z,3.65
2023-03-19T14:36:19.865Z,3.28
2023-03-19T14:40:34.121Z,2.25
2023-03-19T14:45:07.279Z,2.35
2023-03-19T14:49:52.935Z,2.45
2023-03-19T14:54:06.299Z,1.88
2023-03-19T14:58:13.806Z,2.00
2023-03-19T15:02:32.033Z,5.90
2023-03-19T15:06:39.738Z,2.97
2023-03-19T15:10:57.176Z,1.98
2023-03-19T15:15:39.158Z,2.88
2023-03-19T15:19:44.454Z,3.92
2023-03-19T15:23:48.300Z,2.13
2023-03-19T15:28:09.892Z,3.47
2023-03-19T15:32:16.102Z,3.05
2023-03-19T15:36:31.724Z,2.35
2023-03-19T15:40:42.733Z,3.00
2023-03-19T15:44:50.573Z,7.20
2023-03-19T15:48:58.366Z,3.53
2023-03-19T15:53:05.989Z,1.85
2023-03-19T15:57:10.698Z,2.13
2023-03-19T16:01:19.544Z,2.33
2023-03-19T16:05:27.497Z,1.98
2023-03-19T16:09:37.277Z,2.03
2023-03-19T16:13:41.364Z,2.33
2023-03-19T16:17:49.532Z,4.53
2023-03-19T16:21:53.556Z,1.92
2023-03-19T16:26:15.735Z,2.10
2023-03-19T16:30:22.613Z,4.82
2023-03-19T16:34:37.094Z,2.28
2023-03-19T16:38:46.389Z,3.72
2023-03-19T16:42:52.958Z,3.78
2023-03-19T16:46:59.419Z,3.17
2023-03-19T16:51:06.640Z,3.50
2023-03-19T16:55:20.891Z,3.40
2023-03-19T16:59:30.251Z,4.07
2023-03-19T17:03:33.401Z,1.83
2023-03-19T17:07:43.524Z,4.28
2023-03-19T17:11:49.683Z,3.03
2023-03-19T17:15:55.568Z,3.22
2023-03-19T17:20:01.283Z,2.20
2023-03-19T17:24:21.702Z,5.22
2023-03-19T17:28:28.974Z,4.70
2023-03-19T17:32:32.255Z,2.33
2023-03-19T17:36:38.083Z,3.10
2023-03-19T17:40:44.285Z,4.10
2023-03-19T17:44:48.013Z,3.88
2023-03-19T17:48:54.720Z,2.80
2023-03-19T17:52:58.023Z,5.72
2023-03-19T17:57:02.488Z,6.40
2023-03-19T18:01:11.741Z,6.93
2023-03-19T18:05:21.987Z,11.32
2023-03-19T18:09:29.415Z,8.48
2023-03-19T18:13:39.762Z,9.00
2023-03-19T18:17:55.897Z,9.48
2023-03-19T18:21:59.184Z,11.13
2023-03-19T18:26:05.777Z,11.82
2023-03-19T18:30:13.940Z,7.67
2023-03-19T18:34:18.847Z,10.75
2023-03-19T18:38:23.657Z,7.40
2023-03-19T18:42:26.814Z,4.75
2023-03-19T18:46:34.391Z,6.83
2023-03-19T18:50:37.588Z,8.20
2023-03-19T18:54:43.512Z,5.57
2023-03-19T18:58:46.816Z,10.33
2023-03-19T19:02:54.330Z,8.17
2023-03-19T19:06:57.467Z,10.37
2023-03-19T19:11:05.684Z,9.95
2023-03-19T19:15:18.446Z,9.20
2023-03-19T19:19:40.800Z,13.83
2023-03-19T19:23:47.394Z,19.83
2023-03-19T19:27:57.501Z,12.90
2023-03-19T19:32:00.805Z,16.40
2023-03-19T19:36:06.369Z,13.57
2023-03-19T19:40:15.859Z,4.90
2023-03-19T19:44:21.444Z,10.67
2023-03-19T19:48:26.333Z,8.30
2023-03-19T19:52:31.933Z,15.90
2023-03-19T19:56:35.370Z,12.90
2023-03-19T20:01:02.223Z,23.40
2023-03-19T20:05:07.768Z,13.80
2023-03-19T20:09:12.205Z,10.20
2023-03-19T20:13:24.318Z,10.03
2023-03-19T20:17:29.063Z,7.83
2023-03-19T20:21:34.066Z,10.03
2023-03-19T20:25:44.310Z,10.47
2023-03-19T20:29:56.376Z,10.03
2023-03-19T20:33:59.471Z,11.87
2023-03-19T20:38:03.540Z,12.80
2023-03-19T20:42:16.269Z,7.47
2023-03-19T20:46:21.059Z,8.27
2023-03-19T20:50:28.809Z,8.33
2023-03-19T20:54:37.625Z,10.70
2023-03-19T20:58:42.069Z,14.20
2023-03-19T21:02:48.052Z,10.13
2023-03-19T21:06:53.862Z,8.70
2023-03-19T21:10:58.352Z,4.80
2023-03-19T21:15:02.812Z,5.68
2023-03-19T21:19:08.102Z,4.07
2023-03-19T21:23:18.607Z,4.90
2023-03-19T21:27:24.668Z,8.02
2023-03-19T21:31:32.128Z,7.50
2023-03-19T21:35:38.643Z,13.85
2023-03-19T21:39:41.929Z,14.87
2023-03-19T21:43:48.430Z,14.32
2023-03-19T21:47:54.899Z,12.73
2023-03-19T21:51:58.244Z,12.85
2023-03-19T21:56:02.476Z,10.07
2023-03-19T22:00:12.794Z,9.57
2023-03-19T22:04:19.266Z,8.17
2023-03-19T22:08:25.761Z,10.82
2023-03-19T22:12:32.650Z,12.10
2023-03-19T22:16:39.898Z,8.90
2023-03-19T22:20:49.089Z,8.68
2023-03-19T22:24:54.779Z,9.67
2023-03-19T22:28:59.930Z,11.40
2023-03-19T22:33:04.451Z,9.63
2023-03-19T22:37:24.997Z,8.50
2023-03-19T22:41:31.905Z,8.03
2023-03-19T22:45:35.184Z,11.77
2023-03-19T22:49:38.400Z,9.63
2023-03-19T22:53:46.905Z,12.65
2023-03-19T22:57:50.750Z,12.90
2023-03-19T23:01:53.933Z,21.70
2023-03-19T23:06:02.514Z,16.87
2023-03-19T23:10:16.908Z,13.63
2023-03-19T23:14:30.862Z,12.57
2023-03-19T23:18:36.749Z,9.00
2023-03-19T23:22:40.103Z,12.47
2023-03-19T23:26:46.065Z,12.90
2023-03-19T23:30:52.368Z,12.50
2023-03-19T23:35:01.301Z,9.87
2023-03-19T23:39:10.558Z,12.03
2023-03-19T23:43:22.054Z,14.80
2023-03-19T23:47:25.524Z,10.60
2023-03-19T23:51:34.538Z,12.33
2023-03-19T23:55:44.742Z,11.80
2023-03-19T23:59:54.199Z,15.03
